Time;durP1;ratioP1;P1;durP2;ratioP2;P2;SDS_P1;SDS_P2;PMS_P1;PMS_P2;Temp;Humidity;BMP_temperature;BMP_pressure;BME280_temperature;BME280_humidity;BME280_pressure;Samples;Min_cycle;Max_cycle;Signal;HPM_P1;HPM_P2
2022/02/26 00:51:16;;;;;;;29.07;9.33;;;3.90;99.90;;;;;;5143371;23;20520;-94
2022/02/26 00:53:16;;;;;;;29.60;8.97;;;3.90;99.90;;;;;;5118412;23;20239;-92
2022/02/26 00:55:18;;;;;;;21.33;8.17;;;4.00;99.90;;;;;;5156091;23;20556;-93
2022/02/26 00:57:18;;;;;;;24.20;8.17;;;3.90;99.90;;;;;;5168413;23;20151;-92
2022/02/26 00:59:19;;;;;;;28.33;8.90;;;3.80;99.90;;;;;;5168002;23;20147;-92
2022/02/26 01:01:20;;;;;;;24.63;9.53;;;3.70;99.90;;;;;;5143391;23;20152;-91
2022/02/26 01:03:21;;;;;;;33.37;9.27;;;3.50;99.90;;;;;;5143352;23;20162;-92
2022/02/26 01:05:22;;;;;;;29.67;9.70;;;3.20;99.90;;;;;;5193623;22;20216;-92
2022/02/26 01:07:23;;;;;;;28.13;9.00;;;3.10;99.90;;;;;;5168350;23;20162;-93
2022/02/26 01:09:23;;;;;;;31.60;9.00;;;2.90;99.90;;;;;;5142862;23;20183;-93
2022/02/26 01:11:24;;;;;;;27.90;9.97;;;3.00;99.90;;;;;;5143169;23;20538;-93
2022/02/26 01:13:25;;;;;;;23.53;9.37;;;2.90;99.90;;;;;;5168264;23;20196;-93
2022/02/26 01:15:26;;;;;;;23.93;8.73;;;2.90;99.90;;;;;;5143177;23;20633;-93
2022/02/26 01:17:27;;;;;;;30.97;9.60;;;3.00;99.90;;;;;;5143099;23;20567;-93
2022/02/26 01:19:28;;;;;;;32.63;10.37;;;3.10;99.90;;;;;;5193373;22;20178;-92
2022/02/26 01:21:29;;;;;;;20.13;8.67;;;3.10;99.90;;;;;;5143502;23;20144;-92
2022/02/26 01:23:29;;;;;;;28.20;9.17;;;3.20;99.90;;;;;;5168130;23;20155;-92
2022/02/26 01:25:30;;;;;;;33.47;10.33;;;3.20;99.90;;;;;;5168226;22;20178;-93
2022/02/26 01:27:31;;;;;;;30.80;9.33;;;3.20;99.90;;;;;;5143196;23;20148;-93
2022/02/26 01:29:32;;;;;;;21.57;8.07;;;3.30;99.90;;;;;;5142929;23;20155;-93
2022/02/26 01:31:33;;;;;;;25.23;9.30;;;3.30;99.90;;;;;;5168017;23;20234;-94
2022/02/26 01:33:34;;;;;;;31.33;9.07;;;3.30;99.90;;;;;;5143196;23;20225;-93
2022/02/26 01:35:34;;;;;;;27.20;10.07;;;3.30;99.90;;;;;;5142922;23;20170;-94
2022/02/26 01:37:35;;;;;;;27.53;9.40;;;3.20;99.90;;;;;;5167911;23;20672;-93
2022/02/26 01:39:36;;;;;;;24.60;8.83;;;3.10;99.90;;;;;;5168003;23;20147;-94
2022/02/26 01:41:38;;;;;;;36.53;8.70;;;3.10;99.90;;;;;;5193286;22;20153;-93
2022/02/26 01:43:39;;;;;;;30.30;9.43;;;3.00;99.90;;;;;;5142782;23;20151;-94
2022/02/26 01:45:39;;;;;;;27.90;9.73;;;3.00;99.90;;;;;;5168037;22;20175;-94
2022/02/26 01:47:41;;;;;;;37.97;10.27;;;2.90;99.90;;;;;;5168146;23;20178;-94
2022/02/26 01:49:42;;;;;;;26.97;9.83;;;2.90;99.90;;;;;;5168119;23;20197;-92
2022/02/26 01:51:44;;;;;;;34.13;10.50;;;2.90;99.90;;;;;;5168352;23;20154;-94
2022/02/26 01:53:46;;;;;;;34.17;10.43;;;2.80;99.90;;;;;;5143246;23;20154;-93
2022/02/26 01:55:48;;;;;;;28.27;10.10;;;2.80;99.90;;;;;;5168170;22;20163;-94
2022/02/26 01:57:49;;;;;;;34.87;10.03;;;2.90;99.90;;;;;;5142860;23;20156;-94
2022/02/26 01:59:50;;;;;;;25.27;9.70;;;2.90;99.90;;;;;;5167899;23;20237;-95
2022/02/26 02:01:51;;;;;;;27.50;9.57;;;2.90;99.90;;;;;;5167827;23;20154;-94
2022/02/26 02:03:51;;;;;;;24.70;9.87;;;2.90;99.90;;;;;;5168049;23;20243;-93
2022/02/26 02:05:55;;;;;;;29.57;10.57;;;2.90;99.90;;;;;;5167936;22;20170;-94
2022/02/26 02:07:57;;;;;;;29.80;9.90;;;2.90;99.90;;;;;;5142657;23;20724;-94
2022/02/26 02:09:58;;;;;;;27.87;9.77;;;2.90;99.90;;;;;;5143396;23;20147;-94
2022/02/26 02:11:59;;;;;;;29.93;10.43;;;2.90;99.90;;;;;;5169844;23;20193;-94
2022/02/26 02:14:01;;;;;;;28.83;9.23;;;2.80;99.90;;;;;;5144791;23;20155;-94
2022/02/26 02:16:01;;;;;;;29.30;10.30;;;2.90;99.90;;;;;;5144330;23;20167;-94
2022/02/26 02:18:04;;;;;;;27.40;9.20;;;2.90;99.90;;;;;;5169428;23;20225;-94
2022/02/26 02:20:06;;;;;;;34.63;9.43;;;3.00;99.90;;;;;;5144651;23;20151;-93
2022/02/26 02:22:08;;;;;;;34.73;8.70;;;3.00;99.90;;;;;;5169822;23;20147;-93
2022/02/26 02:24:09;;;;;;;28.93;9.53;;;3.00;99.90;;;;;;5169256;23;20210;-93
2022/02/26 02:26:10;;;;;;;23.70;9.73;;;2.90;99.90;;;;;;5169310;22;20621;-94
2022/02/26 02:28:11;;;;;;;30.13;10.03;;;2.90;99.90;;;;;;5144452;23;20190;-94
2022/02/26 02:30:13;;;;;;;30.40;9.07;;;3.00;99.90;;;;;;5169424;23;20142;-94
2022/02/26 02:32:13;;;;;;;37.40;10.23;;;3.00;99.90;;;;;;5144500;23;20158;-93
2022/02/26 02:34:14;;;;;;;25.30;9.63;;;3.00;99.90;;;;;;5144371;23;20144;-93
2022/02/26 02:36:15;;;;;;;37.07;10.07;;;3.10;99.90;;;;;;5144311;23;20242;-93
2022/02/26 02:38:17;;;;;;;34.90;10.30;;;3.10;99.90;;;;;;5169537;23;20161;-94
2022/02/26 02:40:18;;;;;;;27.70;10.97;;;3.20;99.90;;;;;;5169361;23;20668;-93
2022/02/26 02:42:18;;;;;;;40.37;10.27;;;3.10;99.90;;;;;;5169436;23;20147;-95
2022/02/26 02:44:20;;;;;;;37.50;9.53;;;3.10;99.90;;;;;;5144365;23;20148;-94
2022/02/26 02:46:20;;;;;;;26.93;9.97;;;3.00;99.90;;;;;;5144306;23;20222;-93
2022/02/26 02:48:21;;;;;;;33.40;9.73;;;3.00;99.90;;;;;;5194546;22;20188;-94
2022/02/26 02:50:22;;;;;;;33.50;10.20;;;2.90;99.90;;;;;;5169810;23;20155;-94
2022/02/26 02:52:23;;;;;;;28.83;10.17;;;2.90;99.90;;;;;;5169535;23;20629;-95
2022/02/26 02:54:24;;;;;;;35.40;10.77;;;2.90;99.90;;;;;;5144173;23;20179;-94
2022/02/26 02:56:25;;;;;;;34.80;10.37;;;2.80;99.90;;;;;;5169746;23;20170;-93
2022/02/26 02:58:28;;;;;;;28.40;10.00;;;2.80;99.90;;;;;;5169507;23;20192;-92
2022/02/26 03:00:29;;;;;;;28.00;9.23;;;2.80;99.90;;;;;;5144242;23;20148;-94
2022/02/26 03:02:31;;;;;;;35.33;9.57;;;2.70;99.90;;;;;;5169669;23;20151;-95
2022/02/26 03:04:31;;;;;;;37.27;9.30;;;2.60;99.90;;;;;;5144062;23;20208;-94
2022/02/26 03:06:34;;;;;;;36.00;11.07;;;2.70;99.90;;;;;;5194398;22;20210;-93
2022/02/26 03:08:34;;;;;;;25.27;9.40;;;2.80;99.90;;;;;;5143900;23;20183;-94
2022/02/26 03:10:35;;;;;;;26.37;9.07;;;2.80;99.90;;;;;;5169196;23;20155;-91
2022/02/26 03:12:36;;;;;;;31.73;10.93;;;2.80;99.90;;;;;;5144029;23;20214;-94
2022/02/26 03:14:37;;;;;;;26.83;10.43;;;2.80;99.90;;;;;;5144343;23;20167;-93
2022/02/26 03:16:38;;;;;;;35.60;10.47;;;2.70;99.90;;;;;;5194241;22;20232;-94
2022/02/26 03:18:39;;;;;;;30.60;9.97;;;2.60;99.90;;;;;;5169078;22;20147;-95
2022/02/26 03:20:40;;;;;;;34.90;10.53;;;2.60;99.90;;;;;;5169188;23;20187;-95
2022/02/26 03:22:40;;;;;;;22.87;9.87;;;2.60;99.90;;;;;;5169088;23;20226;-95
2022/02/26 03:24:41;;;;;;;26.43;9.10;;;2.60;99.90;;;;;;5143605;23;20179;-95
2022/02/26 03:26:42;;;;;;;30.57;9.13;;;2.50;99.90;;;;;;5169106;23;20143;-91
2022/02/26 03:28:42;;;;;;;29.00;9.50;;;2.50;99.90;;;;;;5144030;23;20190;-94
2022/02/26 03:30:43;;;;;;;28.83;9.47;;;2.50;99.90;;;;;;5168927;23;20214;-93
2022/02/26 03:32:44;;;;;;;29.63;10.33;;;2.40;99.90;;;;;;5143856;23;20152;-94
2022/02/26 03:34:45;;;;;;;29.57;10.07;;;2.40;99.90;;;;;;5168747;22;20715;-93
2022/02/26 03:36:51;;;;;;;29.43;9.93;;;2.40;99.90;;;;;;5143590;23;20152;-94
2022/02/26 03:38:51;;;;;;;30.27;10.10;;;2.40;99.90;;;;;;5143544;23;20143;-94
2022/02/26 03:40:52;;;;;;;23.47;9.60;;;2.50;99.90;;;;;;5194250;22;20200;-93
2022/02/26 03:42:53;;;;;;;35.20;10.23;;;2.40;99.90;;;;;;5143964;23;20147;-93
2022/02/26 03:44:53;;;;;;;27.20;10.17;;;2.40;99.90;;;;;;5194333;22;20319;-93
2022/02/26 03:46:54;;;;;;;30.80;10.50;;;2.50;99.90;;;;;;5143871;23;20155;-93
2022/02/26 03:48:55;;;;;;;28.80;10.53;;;2.50;99.90;;;;;;5194200;22;20197;-93
2022/02/26 03:50:55;;;;;;;36.53;10.77;;;2.50;99.90;;;;;;5144251;23;20218;-93
2022/02/26 03:52:56;;;;;;;26.50;10.60;;;2.40;99.90;;;;;;5194476;22;20197;-94
2022/02/26 03:54:57;;;;;;;39.53;10.73;;;2.30;99.90;;;;;;5143938;23;20168;-93
2022/02/26 03:56:58;;;;;;;29.50;11.00;;;2.30;99.90;;;;;;5194902;22;20204;-94
2022/02/26 03:58:58;;;;;;;28.57;10.93;;;2.20;99.90;;;;;;5143746;23;20180;-93
2022/02/26 04:00:59;;;;;;;37.10;10.87;;;2.30;99.90;;;;;;5193971;22;20154;-94
2022/02/26 04:03:00;;;;;;;31.87;10.33;;;2.30;99.90;;;;;;5144027;23;20155;-94
2022/02/26 04:05:01;;;;;;;28.83;10.03;;;2.20;99.90;;;;;;5193923;22;20247;-94
2022/02/26 04:07:03;;;;;;;25.63;9.90;;;2.10;99.90;;;;;;5143652;23;20190;-94
2022/02/26 04:09:05;;;;;;;22.93;10.03;;;2.00;99.90;;;;;;5143609;23;20187;-94
2022/02/26 04:11:05;;;;;;;22.47;9.73;;;2.00;99.90;;;;;;5168856;23;20147;-92
2022/02/26 04:13:06;;;;;;;31.77;11.27;;;1.90;99.90;;;;;;5143642;23;20226;-94
2022/02/26 04:15:08;;;;;;;35.83;11.80;;;1.80;99.90;;;;;;5168554;22;20514;-92
2022/02/26 04:17:09;;;;;;;31.03;11.07;;;1.60;99.90;;;;;;5168567;23;20155;-95
2022/02/26 04:19:10;;;;;;;28.33;10.73;;;1.60;99.90;;;;;;5143467;23;20251;-93
2022/02/26 04:21:13;;;;;;;30.83;11.23;;;1.70;99.90;;;;;;5143645;23;20167;-94
2022/02/26 04:23:14;;;;;;;26.00;11.47;;;1.70;99.90;;;;;;5143556;23;20284;-94
2022/02/26 04:25:14;;;;;;;34.73;11.87;;;1.60;99.90;;;;;;5143429;23;20171;-93
2022/02/26 04:27:15;;;;;;;28.07;11.47;;;1.70;99.90;;;;;;5143652;23;20156;-94
2022/02/26 04:29:16;;;;;;;31.97;11.73;;;1.70;99.90;;;;;;5143645;23;20253;-93
2022/02/26 04:31:17;;;;;;;34.57;12.53;;;1.70;99.90;;;;;;5143605;23;20144;-95
2022/02/26 04:33:20;;;;;;;29.57;13.10;;;1.70;99.90;;;;;;5168555;23;20189;-94
2022/02/26 04:35:21;;;;;;;34.87;12.27;;;1.80;99.90;;;;;;5143675;23;20167;-91
2022/02/26 04:37:22;;;;;;;42.80;13.20;;;1.80;99.90;;;;;;5193605;22;20147;-93
2022/02/26 04:39:22;;;;;;;26.30;12.77;;;1.80;99.90;;;;;;5143038;23;20205;-93
2022/02/26 04:41:24;;;;;;;35.20;11.87;;;1.80;99.90;;;;;;5168263;23;20482;-93
2022/02/26 04:43:25;;;;;;;31.67;11.40;;;1.60;99.90;;;;;;5143346;23;20209;-93
2022/02/26 04:45:26;;;;;;;45.27;12.13;;;1.60;99.90;;;;;;5143122;23;20182;-94
2022/02/26 04:47:26;;;;;;;28.40;11.13;;;1.60;99.90;;;;;;5193783;22;20145;-94
2022/02/26 04:49:27;;;;;;;35.33;11.10;;;1.60;99.90;;;;;;5143020;23;20514;-93
2022/02/26 04:51:28;;;;;;;35.70;11.37;;;1.70;99.90;;;;;;5168419;23;20186;-93
2022/02/26 04:53:29;;;;;;;31.80;11.23;;;1.80;99.90;;;;;;5143684;23;20238;-93
2022/02/26 04:55:30;;;;;;;25.63;11.00;;;1.90;99.90;;;;;;5168549;22;20174;-93
2022/02/26 04:57:30;;;;;;;28.17;11.63;;;1.90;99.90;;;;;;5168922;23;20154;-94
2022/02/26 04:59:31;;;;;;;30.87;11.70;;;1.90;99.90;;;;;;5143507;23;20151;-94
2022/02/26 05:01:32;;;;;;;33.67;11.20;;;1.90;99.90;;;;;;5168236;23;20151;-94
2022/02/26 05:03:33;;;;;;;32.67;11.30;;;1.80;99.90;;;;;;5142911;23;20205;-95
2022/02/26 05:05:33;;;;;;;35.70;11.40;;;1.80;99.90;;;;;;5167959;22;20167;-94
2022/02/26 05:07:34;;;;;;;32.47;12.13;;;1.70;99.90;;;;;;5143204;23;20152;-94
2022/02/26 05:09:35;;;;;;;24.47;10.67;;;1.80;99.90;;;;;;5143101;23;20685;-93
2022/02/26 05:11:36;;;;;;;34.03;12.07;;;1.70;99.90;;;;;;5193629;22;20243;-92
2022/02/26 05:13:38;;;;;;;30.57;12.40;;;1.80;99.90;;;;;;5143227;23;20182;-93
2022/02/26 05:15:38;;;;;;;32.17;12.07;;;1.80;99.90;;;;;;5168076;23;20613;-93
2022/02/26 05:17:40;;;;;;;36.07;12.80;;;1.70;99.90;;;;;;5142954;23;20159;-93
2022/02/26 05:19:41;;;;;;;34.47;12.73;;;1.70;99.90;;;;;;5142915;23;20171;-92
2022/02/26 05:21:42;;;;;;;36.20;12.23;;;1.80;99.90;;;;;;5167954;23;20177;-93
2022/02/26 05:23:43;;;;;;;25.03;12.03;;;1.70;99.90;;;;;;5143241;23;20235;-94
2022/02/26 05:25:43;;;;;;;32.73;12.23;;;1.70;99.90;;;;;;5193391;22;20617;-94
2022/02/26 05:27:44;;;;;;;35.17;12.07;;;1.80;99.90;;;;;;5143598;23;20159;-94
2022/02/26 05:29:45;;;;;;;34.70;13.00;;;1.80;99.90;;;;;;5193459;22;20184;-93
2022/02/26 05:31:46;;;;;;;48.00;13.37;;;1.90;99.90;;;;;;5143104;23;20155;-94
2022/02/26 05:33:46;;;;;;;33.97;12.60;;;2.00;99.90;;;;;;5193435;22;20479;-93
2022/02/26 05:35:47;;;;;;;34.77;12.13;;;2.00;99.90;;;;;;5143078;23;20587;-93
2022/02/26 05:37:48;;;;;;;28.73;12.00;;;1.90;99.90;;;;;;5193445;22;20172;-93
2022/02/26 05:39:49;;;;;;;29.30;12.10;;;1.80;99.90;;;;;;5142921;23;20155;-93
2022/02/26 05:41:50;;;;;;;39.23;11.97;;;1.80;99.90;;;;;;5168238;23;20157;-93
2022/02/26 05:43:50;;;;;;;32.53;12.40;;;1.70;99.90;;;;;;5167969;23;20146;-94
2022/02/26 05:45:51;;;;;;;28.90;11.90;;;1.70;99.90;;;;;;5142672;23;20214;-93
2022/02/26 05:47:52;;;;;;;28.43;11.00;;;1.60;99.90;;;;;;5167754;23;20246;-93
2022/02/26 05:49:52;;;;;;;37.97;12.50;;;1.60;99.90;;;;;;5143026;23;20191;-93
2022/02/26 05:51:53;;;;;;;35.70;12.30;;;1.60;99.90;;;;;;5168138;23;20238;-93
2022/02/26 05:53:54;;;;;;;32.20;13.07;;;1.60;99.90;;;;;;5143054;23;20151;-94
2022/02/26 05:55:55;;;;;;;35.73;13.83;;;1.60;99.90;;;;;;5167763;22;20167;-93
2022/02/26 05:57:56;;;;;;;31.43;12.37;;;1.70;99.90;;;;;;5193715;22;20154;-94
2022/02/26 05:59:57;;;;;;;35.33;13.13;;;1.70;99.90;;;;;;5143200;23;20230;-93
2022/02/26 06:01:57;;;;;;;36.53;14.83;;;1.80;99.90;;;;;;5168244;23;20167;-94
2022/02/26 06:03:58;;;;;;;33.50;12.90;;;1.80;99.90;;;;;;5142725;23;20148;-94
2022/02/26 06:05:59;;;;;;;31.87;13.80;;;1.80;99.90;;;;;;5168560;22;20171;-93
2022/02/26 06:08:00;;;;;;;40.80;14.33;;;1.80;99.90;;;;;;5142959;23;20222;-92
2022/02/26 06:10:01;;;;;;;45.93;15.13;;;1.70;99.90;;;;;;5167945;23;20234;-93
2022/02/26 06:12:02;;;;;;;42.80;15.20;;;1.90;99.90;;;;;;5143594;23;20152;-93
2022/02/26 06:14:03;;;;;;;38.90;14.27;;;1.90;99.90;;;;;;5193519;22;20154;-93
2022/02/26 06:16:05;;;;;;;35.93;14.83;;;1.80;99.90;;;;;;5168047;22;20163;-92
2022/02/26 06:18:06;;;;;;;41.07;16.17;;;1.90;99.90;;;;;;5142845;23;20171;-95
2022/02/26 06:20:08;;;;;;;44.87;16.27;;;1.80;99.90;;;;;;5142645;23;20160;-93
2022/02/26 06:22:08;;;;;;;46.57;15.17;;;1.90;99.90;;;;;;5143114;23;20156;-95
2022/02/26 06:24:09;;;;;;;38.63;15.20;;;1.90;99.90;;;;;;5167903;23;20594;-94
2022/02/26 06:26:10;;;;;;;35.57;14.47;;;1.90;99.90;;;;;;5167802;22;20198;-94
2022/02/26 06:28:12;;;;;;;47.63;15.47;;;2.00;99.90;;;;;;5142628;23;20191;-94
2022/02/26 06:30:14;;;;;;;44.53;13.93;;;2.00;99.90;;;;;;5167698;23;20230;-93
2022/02/26 06:32:15;;;;;;;30.93;14.07;;;2.00;99.90;;;;;;5142768;23;20155;-94
2022/02/26 06:34:15;;;;;;;32.77;13.63;;;2.00;99.90;;;;;;5193037;22;20292;-93
2022/02/26 06:36:16;;;;;;;25.17;12.40;;;2.00;99.90;;;;;;5142629;23;20175;-94
2022/02/26 06:38:17;;;;;;;32.03;12.57;;;2.00;99.90;;;;;;5193375;22;20218;-94
2022/02/26 06:40:17;;;;;;;36.67;11.30;;;1.90;99.90;;;;;;5142930;23;20178;-94
2022/02/26 06:42:18;;;;;;;29.73;11.57;;;1.90;99.90;;;;;;5193484;22;20173;-94
2022/02/26 06:44:19;;;;;;;37.23;13.17;;;1.90;99.90;;;;;;5142710;23;20148;-94
2022/02/26 06:46:19;;;;;;;34.70;13.13;;;2.00;99.90;;;;;;5167949;22;20234;-94
2022/02/26 06:48:20;;;;;;;31.40;12.03;;;2.10;99.90;;;;;;5143279;23;20191;-94
2022/02/26 06:50:21;;;;;;;32.47;11.63;;;2.30;99.90;;;;;;5142878;23;20163;-94
2022/02/26 06:52:21;;;;;;;32.93;12.60;;;2.50;99.90;;;;;;5168035;23;20155;-93
2022/02/26 06:54:22;;;;;;;28.23;11.10;;;2.80;99.90;;;;;;5168181;22;20158;-94
2022/02/26 06:56:23;;;;;;;33.83;12.87;;;3.10;99.90;;;;;;5168771;23;20147;-94
2022/02/26 06:58:24;;;;;;;29.83;11.63;;;3.60;99.90;;;;;;5169740;23;20511;-94
2022/02/26 07:00:26;;;;;;;27.50;11.37;;;4.10;99.90;;;;;;5170883;23;20644;-94
2022/02/26 07:02:26;;;;;;;25.03;10.57;;;4.70;99.90;;;;;;5144448;23;20518;-94
2022/02/26 07:04:29;;;;;;;26.00;10.73;;;5.20;99.90;;;;;;5143834;23;20159;-94
2022/02/26 07:06:29;;;;;;;27.53;10.20;;;5.70;99.90;;;;;;5169300;23;20190;-94
2022/02/26 07:08:32;;;;;;;19.63;9.53;;;6.10;99.90;;;;;;5144246;23;20186;-94
2022/02/26 07:10:34;;;;;;;24.37;9.30;;;6.70;99.90;;;;;;5169390;23;20154;-92
2022/02/26 07:12:34;;;;;;;22.80;8.83;;;7.20;99.90;;;;;;5168984;23;20159;-94
2022/02/26 07:14:36;;;;;;;20.40;9.80;;;8.00;99.90;;;;;;5169212;22;20151;-93
2022/02/26 07:16:37;;;;;;;30.33;9.83;;;8.30;99.90;;;;;;5143947;23;20155;-93
2022/02/26 07:18:38;;;;;;;25.37;9.67;;;8.20;99.90;;;;;;5169316;23;20155;-94
2022/02/26 07:20:39;;;;;;;26.73;8.87;;;8.50;99.90;;;;;;5169251;23;20181;-94
2022/02/26 07:22:40;;;;;;;23.23;8.70;;;8.80;99.90;;;;;;5143702;23;20158;-94
2022/02/26 07:24:40;;;;;;;22.40;8.52;;;9.00;99.90;;;;;;5168954;22;20254;-95
2022/02/26 07:26:41;;;;;;;21.50;8.83;;;9.00;99.90;;;;;;5169473;23;20154;-95
2022/02/26 07:28:42;;;;;;;20.57;8.67;;;8.80;99.90;;;;;;5143930;23;20187;-95
2022/02/26 07:30:43;;;;;;;19.63;8.50;;;8.80;99.90;;;;;;5194503;22;20176;-95
2022/02/26 07:32:43;;;;;;;24.38;8.00;;;9.00;99.90;;;;;;5169150;23;20154;-95
2022/02/26 07:34:44;;;;;;;22.42;8.70;;;8.80;99.90;;;;;;5194169;22;20250;-93
2022/02/26 07:36:45;;;;;;;21.73;8.17;;;8.80;99.90;;;;;;5169036;23;20142;-96
2022/02/26 07:38:46;;;;;;;26.30;9.68;;;8.80;99.90;;;;;;5168903;23;20620;-93
2022/02/26 07:40:47;;;;;;;19.92;8.40;;;8.60;99.90;;;;;;5168980;23;20165;-95
2022/02/26 07:42:48;;;;;;;23.98;9.45;;;8.60;99.90;;;;;;5168874;23;20194;-94
2022/02/26 07:44:49;;;;;;;31.13;12.93;;;8.10;99.90;;;;;;5169016;22;20505;-94
2022/02/26 07:46:50;;;;;;;27.63;11.70;;;7.80;99.90;;;;;;5169074;23;20157;-94
2022/02/26 07:48:51;;;;;;;27.30;10.88;;;7.90;99.90;;;;;;5168870;23;20213;-94
2022/02/26 07:50:52;;;;;;;33.67;11.60;;;8.30;99.90;;;;;;5194744;22;20153;-95
2022/02/26 07:52:52;;;;;;;29.38;11.98;;;8.50;99.90;;;;;;5169466;22;20150;-93
2022/02/26 07:54:53;;;;;;;26.35;11.65;;;8.80;99.90;;;;;;5143902;23;20199;-94
2022/02/26 07:56:54;;;;;;;25.58;11.20;;;9.30;99.90;;;;;;5169005;23;20173;-94
2022/02/26 07:58:55;;;;;;;25.88;10.52;;;9.70;99.90;;;;;;5143860;23;20554;-94
2022/02/26 08:00:55;;;;;;;23.77;10.80;;;10.00;99.90;;;;;;5168888;23;20161;-94
2022/02/26 08:02:58;;;;;;;27.55;10.68;;;9.90;99.90;;;;;;5143610;23;20192;-93
2022/02/26 08:04:58;;;;;;;25.70;10.60;;;9.90;99.90;;;;;;5143467;23;20178;-94
2022/02/26 08:06:59;;;;;;;20.30;10.90;;;9.80;99.90;;;;;;5168707;22;20147;-93
2022/02/26 08:09:00;;;;;;;26.63;11.52;;;9.20;99.90;;;;;;5143304;23;20672;-95
2022/02/26 08:11:01;;;;;;;22.80;10.13;;;8.50;99.90;;;;;;5169996;23;20173;-93
2022/02/26 08:13:01;;;;;;;28.27;9.75;;;8.20;99.90;;;;;;5143424;23;20155;-93
2022/02/26 08:15:03;;;;;;;23.45;9.15;;;8.40;99.90;;;;;;5168321;23;20174;-94
2022/02/26 08:17:04;;;;;;;21.05;8.60;;;8.70;99.90;;;;;;5143396;23;20147;-94
2022/02/26 08:19:05;;;;;;;23.85;9.05;;;8.70;99.90;;;;;;5168743;23;20155;-95
2022/02/26 08:21:06;;;;;;;19.25;8.30;;;8.70;99.90;;;;;;5143550;23;20186;-95
2022/02/26 08:23:06;;;;;;;22.90;8.73;;;7.90;99.90;;;;;;5168521;23;20162;-94
2022/02/26 08:25:09;;;;;;;22.13;8.57;;;7.40;99.90;;;;;;5169139;22;20167;-94
2022/02/26 08:27:12;;;;;;;26.73;8.73;;;7.60;99.90;;;;;;5169240;23;20560;-94
2022/02/26 08:29:13;;;;;;;22.47;8.53;;;7.80;99.90;;;;;;5168692;23;20547;-94
2022/02/26 08:31:14;;;;;;;22.10;8.27;;;7.90;99.90;;;;;;5143577;23;20241;-94
2022/02/26 08:33:15;;;;;;;20.15;8.48;;;7.80;99.90;;;;;;5193864;22;20177;-94
2022/02/26 08:35:16;;;;;;;29.42;9.18;;;7.90;99.90;;;;;;5168940;22;20174;-94
2022/02/26 08:37:17;;;;;;;21.13;8.80;;;8.90;99.90;;;;;;5169572;23;20151;-93
2022/02/26 08:39:17;;;;;;;21.27;8.57;;;9.40;99.90;;;;;;5169005;23;20162;-93
2022/02/26 08:41:18;;;;;;;22.48;8.13;;;10.10;99.90;;;;;;5193841;22;20207;-93
2022/02/26 08:43:19;;;;;;;29.05;8.93;;;10.10;99.90;;;;;;5168537;23;20194;-93
2022/02/26 08:45:19;;;;;;;23.10;8.55;;;10.70;99.90;;;;;;5168562;22;20191;-93
2022/02/26 08:47:20;;;;;;;24.92;8.30;;;11.50;99.90;;;;;;5168489;23;20151;-94
2022/02/26 08:49:21;;;;;;;22.52;8.27;;;11.50;99.90;;;;;;5168533;23;20190;-94
2022/02/26 08:51:22;;;;;;;26.17;7.47;;;11.70;99.90;;;;;;5168830;22;20542;-93
2022/02/26 08:53:22;;;;;;;20.38;7.45;;;10.50;99.90;;;;;;5193856;22;20196;-93
2022/02/26 08:55:23;;;;;;;20.17;7.18;;;11.40;99.90;;;;;;5143229;23;20687;-95
2022/02/26 08:57:24;;;;;;;19.58;7.50;;;12.20;99.90;;;;;;5193953;22;20184;-95
2022/02/26 08:59:25;;;;;;;20.08;7.63;;;12.70;99.90;;;;;;5168071;23;20177;-95
2022/02/26 09:01:26;;;;;;;20.27;7.03;;;13.20;99.90;;;;;;5168316;23;20155;-95
2022/02/26 09:03:26;;;;;;;23.00;6.72;;;13.60;99.90;;;;;;5143636;23;20634;-95
2022/02/26 09:05:27;;;;;;;22.85;7.57;;;13.70;99.90;;;;;;5168245;22;20163;-95
2022/02/26 09:07:28;;;;;;;17.67;6.20;;;13.90;99.90;;;;;;5143272;23;20163;-95
2022/02/26 09:09:29;;;;;;;17.15;6.78;;;14.00;99.90;;;;;;5168439;23;20572;-94
2022/02/26 09:11:30;;;;;;;17.00;6.70;;;14.10;99.90;;;;;;5168418;23;20154;-95
2022/02/26 09:13:31;;;;;;;19.45;6.88;;;14.40;99.90;;;;;;5143345;23;20210;-95
2022/02/26 09:15:32;;;;;;;19.88;6.63;;;14.30;99.90;;;;;;5143304;23;20541;-94
2022/02/26 09:17:32;;;;;;;17.48;5.68;;;14.80;99.90;;;;;;5169110;23;20233;-96
2022/02/26 09:19:34;;;;;;;18.92;6.18;;;14.90;99.90;;;;;;5143910;23;20155;-95
2022/02/26 09:21:34;;;;;;;16.52;5.40;;;14.90;99.90;;;;;;5169391;23;20147;-94
2022/02/26 09:23:36;;;;;;;24.60;6.05;;;14.90;99.90;;;;;;5194506;22;20178;-94
2022/02/26 09:25:37;;;;;;;17.70;6.20;;;13.70;99.90;;;;;;5168680;22;20552;-94
2022/02/26 09:27:40;;;;;;;20.85;6.65;;;13.50;99.90;;;;;;5168920;23;20232;-96
2022/02/26 09:29:41;;;;;;;24.48;7.22;;;13.10;99.90;;;;;;5143281;23;20218;-95
2022/02/26 09:31:42;;;;;;;24.17;7.10;;;12.70;99.90;;;;;;5143630;23;20148;-95
2022/02/26 09:33:43;;;;;;;23.33;7.45;;;12.50;99.90;;;;;;5168516;23;20147;-95
2022/02/26 09:35:44;;;;;;;25.00;8.27;;;12.60;99.90;;;;;;5168434;22;20177;-95
2022/02/26 09:37:45;;;;;;;20.23;6.80;;;12.80;99.90;;;;;;5168405;23;20154;-95
2022/02/26 09:39:45;;;;;;;27.58;8.02;;;12.80;99.90;;;;;;5169624;23;20154;-95
2022/02/26 09:41:47;;;;;;;31.15;8.63;;;12.20;99.90;;;;;;5169387;23;20157;-95
2022/02/26 09:43:48;;;;;;;25.42;8.02;;;12.20;99.90;;;;;;5168127;23;20151;-95
2022/02/26 09:45:51;;;;;;;28.25;7.63;;;12.30;99.90;;;;;;5168609;22;20177;-95
2022/02/26 09:47:52;;;;;;;29.08;7.35;;;12.00;99.90;;;;;;5143883;23;20163;-94
2022/02/26 09:49:53;;;;;;;28.58;7.20;;;11.80;99.90;;;;;;5143691;23;20156;-94
2022/02/26 09:51:54;;;;;;;26.23;7.47;;;11.70;99.90;;;;;;5169501;22;20197;-94
2022/02/26 09:53:55;;;;;;;26.13;7.50;;;11.10;99.90;;;;;;5143550;23;20257;-96
2022/02/26 09:55:57;;;;;;;26.15;8.20;;;11.80;99.90;;;;;;5169241;22;20171;-95
2022/02/26 09:57:59;;;;;;;24.83;7.65;;;11.80;99.90;;;;;;5143854;23;20156;-95
2022/02/26 10:00:00;;;;;;;25.20;7.50;;;11.60;99.90;;;;;;5168857;23;20204;-95
2022/02/26 10:02:08;;;;;;;31.88;8.15;;;11.70;99.90;;;;;;5143725;23;20151;-94
2022/02/26 10:04:10;;;;;;;25.92;7.75;;;11.30;99.90;;;;;;5168499;23;20208;-94
2022/02/26 10:06:12;;;;;;;25.20;7.57;;;10.90;99.90;;;;;;5168741;22;20250;-94
2022/02/26 10:08:19;;;;;;;28.65;8.02;;;10.80;99.90;;;;;;5168157;23;20707;-94
2022/02/26 10:10:29;;;;;;;24.33;8.00;;;10.50;99.90;;;;;;5193446;22;20596;-94
2022/02/26 10:12:36;;;;;;;26.02;7.78;;;10.10;99.90;;;;;;5167994;23;20150;-94
2022/02/26 10:14:36;;;;;;;22.63;6.85;;;9.80;99.90;;;;;;5168339;22;20151;-93
2022/02/26 10:16:52;;;;;;;27.73;7.97;;;9.10;99.90;;;;;;5167832;23;20158;-94
2022/02/26 10:18:54;;;;;;;33.65;8.32;;;9.10;99.90;;;;;;5143135;23;20214;-93
2022/02/26 10:20:58;;;;;;;26.42;7.97;;;9.10;99.90;;;;;;5142813;23;20171;-94
2022/02/26 10:23:00;;;;;;;28.33;8.17;;;9.10;99.90;;;;;;5168567;23;20175;-93
2022/02/26 10:25:09;;;;;;;29.40;9.57;;;9.10;99.90;;;;;;5142975;23;20175;-94
2022/02/26 10:27:11;;;;;;;31.93;8.90;;;9.10;99.90;;;;;;5142946;23;20174;-94
2022/02/26 10:29:15;;;;;;;28.67;9.00;;;9.10;99.90;;;;;;5142743;23;20784;-93
2022/02/26 10:31:15;;;;;;;32.57;9.73;;;9.10;99.90;;;;;;5143387;23;20154;-92
2022/02/26 10:33:21;;;;;;;32.07;10.37;;;9.10;99.90;;;;;;5169339;23;20191;-93
2022/02/26 10:35:45;;;;;;;37.97;11.07;;;8.90;99.90;;;;;;5169257;23;20494;-93
2022/02/26 10:37:46;;;;;;;40.17;11.85;;;8.60;99.90;;;;;;5169401;23;20158;-93
2022/02/26 10:39:48;;;;;;;36.25;11.60;;;8.70;99.90;;;;;;5144341;23;20155;-93
2022/02/26 10:41:49;;;;;;;40.47;11.38;;;8.90;99.90;;;;;;5169621;23;20613;-93
2022/02/26 10:43:55;;;;;;;31.48;10.35;;;9.20;99.90;;;;;;5169410;23;20161;-93
2022/02/26 10:46:21;;;;;;;35.58;10.40;;;9.30;99.90;;;;;;5194752;22;20174;-94
2022/02/26 10:48:21;;;;;;;40.83;11.67;;;8.80;99.90;;;;;;5143993;23;20512;-93
2022/02/26 10:50:24;;;;;;;31.20;9.60;;;8.40;99.90;;;;;;5194776;22;20228;-93
2022/02/26 10:52:30;;;;;;;36.08;11.38;;;8.20;99.90;;;;;;5194893;22;20154;-93
2022/02/26 10:54:31;;;;;;;32.50;10.00;;;8.10;99.90;;;;;;5195237;22;20150;-94
2022/02/26 10:56:39;;;;;;;30.83;8.97;;;8.30;99.90;;;;;;5169924;22;20280;-92
2022/02/26 10:58:42;;;;;;;32.20;9.90;;;8.70;99.90;;;;;;5145495;23;20206;-92
2022/02/26 11:00:42;;;;;;;33.03;9.00;;;8.80;99.90;;;;;;5169514;23;20170;-94
2022/02/26 11:02:43;;;;;;;33.37;8.67;;;8.70;99.90;;;;;;5144493;23;20148;-93
2022/02/26 11:04:44;;;;;;;27.37;8.77;;;8.90;99.90;;;;;;5195157;22;20173;-93
2022/02/26 11:06:45;;;;;;;29.07;9.03;;;9.10;99.90;;;;;;5144272;23;20162;-93
2022/02/26 11:08:46;;;;;;;31.27;10.17;;;9.10;99.90;;;;;;5169035;23;20383;-93
2022/02/26 11:10:51;;;;;;;29.13;9.13;;;9.10;99.90;;;;;;5194532;22;20146;-93
2022/02/26 11:12:51;;;;;;;31.57;9.63;;;9.10;99.90;;;;;;5169304;23;20170;-94
2022/02/26 11:14:58;;;;;;;27.20;9.75;;;8.90;99.90;;;;;;5144130;23;20182;-93
2022/02/26 11:17:04;;;;;;;27.27;10.03;;;8.90;99.90;;;;;;5144221;23;20212;-92